Time;durP1;ratioP1;P1;durP2;ratioP2;P2;SDS_P1;SDS_P2;PMS_P1;PMS_P2;Temp;Humidity;BMP_temperature;BMP_pressure;BME280_temperature;BME280_humidity;BME280_pressure;Samples;Min_cycle;Max_cycle;Signal;HPM_P1;HPM_P2
2024/04/10 00:01:04;;;;;;;4.47;1.57;;;13.30;99.90;;;;;;6231571;23;20469;-60
2024/04/10 00:03:34;;;;;;;4.40;1.97;;;13.20;99.90;;;;;;6231631;23;20509;-56
2024/04/10 00:06:03;;;;;;;4.30;1.30;;;13.20;99.90;;;;;;6231421;23;20476;-59
2024/04/10 00:08:32;;;;;;;2.30;1.20;;;13.20;99.90;;;;;;6232087;23;20472;-58
2024/04/10 00:11:00;;;;;;;5.10;1.40;;;13.10;99.90;;;;;;6231819;23;20517;-59
2024/04/10 00:13:29;;;;;;;4.73;1.33;;;13.10;99.90;;;;;;6232017;22;20457;-58
2024/04/10 00:15:58;;;;;;;2.23;1.33;;;13.10;99.90;;;;;;6233138;23;20837;-58
2024/04/10 00:18:27;;;;;;;2.53;1.30;;;13.10;99.90;;;;;;6231714;22;20503;-57
2024/04/10 00:20:53;;;;;;;2.97;1.37;;;13.00;99.90;;;;;;6232124;23;20469;-58
2024/04/10 00:23:25;;;;;;;1.80;1.17;;;13.00;99.90;;;;;;6231426;23;20457;-58
2024/04/10 00:25:55;;;;;;;5.90;1.10;;;13.00;99.90;;;;;;6231729;23;20469;-56
2024/04/10 00:28:24;;;;;;;4.50;1.57;;;13.00;99.90;;;;;;6231889;23;20469;-57
2024/04/10 00:30:50;;;;;;;3.57;1.47;;;13.00;99.90;;;;;;6231502;23;20546;-61
2024/04/10 00:33:19;;;;;;;3.40;1.20;;;13.00;99.90;;;;;;6231472;23;20473;-58
2024/04/10 00:35:54;;;;;;;2.63;1.40;;;12.90;99.90;;;;;;6231662;22;20468;-58
2024/04/10 00:38:26;;;;;;;4.10;1.30;;;12.90;99.90;;;;;;6231698;23;20465;-58
2024/04/10 00:40:56;;;;;;;4.63;1.80;;;12.90;99.90;;;;;;6232051;23;20461;-59
2024/04/10 00:43:24;;;;;;;4.30;1.57;;;12.90;99.90;;;;;;6231200;23;20532;-61
2024/04/10 00:45:56;;;;;;;4.27;1.17;;;12.90;99.90;;;;;;6231150;23;20469;-59
2024/04/10 00:48:25;;;;;;;4.93;1.47;;;13.00;99.90;;;;;;6231910;23;20472;-59
2024/04/10 00:50:52;;;;;;;2.93;1.77;;;13.00;99.90;;;;;;6230935;22;20505;-59
2024/04/10 00:53:21;;;;;;;2.27;1.27;;;13.00;99.90;;;;;;6231113;22;20941;-57
2024/04/10 00:55:50;;;;;;;2.37;1.20;;;13.00;99.90;;;;;;6230565;22;20485;-57
2024/04/10 00:58:19;;;;;;;2.90;1.00;;;12.90;99.90;;;;;;6231125;22;20472;-59
2024/04/10 01:00:45;;;;;;;2.50;2.30;;;13.00;99.90;;;;;;6230756;23;20461;-59
2024/04/10 01:03:14;;;;;;;3.83;1.20;;;13.00;99.90;;;;;;6231272;23;20473;-60
2024/04/10 01:05:40;;;;;;;2.10;1.20;;;12.90;99.90;;;;;;6233803;23;20460;-58
2024/04/10 01:08:09;;;;;;;3.00;1.80;;;12.90;99.90;;;;;;6232024;23;20823;-57
2024/04/10 01:10:35;;;;;;;3.07;1.60;;;12.90;99.90;;;;;;6231243;23;20457;-59
2024/04/10 01:13:08;;;;;;;5.50;1.87;;;12.80;99.90;;;;;;6230469;23;20525;-60
2024/04/10 01:15:34;;;;;;;2.73;1.13;;;12.80;99.90;;;;;;6230456;23;20461;-59
2024/04/10 01:18:04;;;;;;;4.77;1.63;;;12.80;99.90;;;;;;6232154;23;20584;-60
2024/04/10 01:20:30;;;;;;;3.70;1.40;;;12.80;99.90;;;;;;6232022;22;20973;-59
2024/04/10 01:23:04;;;;;;;2.40;1.47;;;12.80;99.90;;;;;;6231387;23;20535;-59
2024/04/10 01:25:30;;;;;;;4.10;1.17;;;12.80;99.90;;;;;;6230128;23;20476;-58
2024/04/10 01:27:59;;;;;;;5.63;1.20;;;12.80;99.90;;;;;;6230613;22;20465;-60
2024/04/10 01:30:25;;;;;;;3.60;1.40;;;12.80;99.90;;;;;;6231374;22;20509;-59
2024/04/10 01:32:54;;;;;;;2.37;1.20;;;12.90;99.90;;;;;;6232678;23;20469;-57
2024/04/10 01:35:20;;;;;;;2.40;1.00;;;12.90;99.90;;;;;;6232429;23;21084;-56
2024/04/10 01:37:48;;;;;;;3.97;1.50;;;12.90;99.90;;;;;;6232826;23;20527;-56
2024/04/10 01:40:17;;;;;;;3.83;1.30;;;12.90;99.90;;;;;;6233096;23;20779;-57
2024/04/10 01:42:46;;;;;;;1.87;1.10;;;13.00;99.90;;;;;;6232135;23;20847;-59
2024/04/10 01:45:13;;;;;;;2.70;1.43;;;12.90;99.90;;;;;;6231917;23;20481;-58
2024/04/10 01:47:42;;;;;;;2.13;1.57;;;12.90;99.90;;;;;;6232156;23;20870;-59
2024/04/10 01:50:08;;;;;;;1.93;1.20;;;13.00;99.90;;;;;;6231938;23;20599;-59
2024/04/10 01:52:37;;;;;;;1.40;1.10;;;13.00;99.90;;;;;;6227426;22;20812;-59
2024/04/10 01:55:03;;;;;;;1.70;1.30;;;13.00;99.90;;;;;;6227514;23;20887;-59
2024/04/10 01:57:34;;;;;;;2.87;1.00;;;13.00;99.90;;;;;;6228068;23;20611;-59
2024/04/10 02:00:00;;;;;;;4.63;1.50;;;13.00;99.90;;;;;;6229728;23;20468;-59
2024/04/10 02:02:28;;;;;;;3.83;1.43;;;13.00;99.90;;;;;;6232386;22;21010;-59
2024/04/10 02:04:55;;;;;;;6.20;1.50;;;13.00;99.90;;;;;;6231236;23;20473;-60
2024/04/10 02:07:23;;;;;;;3.20;1.70;;;12.90;99.90;;;;;;6233035;23;20906;-59
2024/04/10 02:09:49;;;;;;;2.90;2.17;;;13.00;99.90;;;;;;6232123;23;20525;-59
2024/04/10 02:12:20;;;;;;;1.63;1.30;;;13.00;99.90;;;;;;6232345;23;20461;-57
2024/04/10 02:14:48;;;;;;;3.73;1.20;;;13.00;99.90;;;;;;6232133;23;20489;-60
2024/04/10 02:17:17;;;;;;;4.47;1.03;;;13.10;99.90;;;;;;6233011;23;20457;-58
2024/04/10 02:19:44;;;;;;;5.47;1.30;;;13.10;99.90;;;;;;6232090;23;20578;-59
2024/04/10 02:22:12;;;;;;;2.20;1.37;;;13.10;99.90;;;;;;6233483;23;20509;-58
2024/04/10 02:24:38;;;;;;;2.50;1.00;;;13.10;99.90;;;;;;6229794;23;20473;-59
2024/04/10 02:27:07;;;;;;;3.97;1.20;;;13.00;99.90;;;;;;6230768;23;20558;-57
2024/04/10 02:29:33;;;;;;;1.40;1.00;;;13.00;99.90;;;;;;6230858;22;20655;-56
2024/04/10 02:32:04;;;;;;;3.63;1.33;;;13.00;99.90;;;;;;6230568;23;20583;-58
2024/04/10 02:34:30;;;;;;;2.90;1.00;;;13.00;99.90;;;;;;6230171;23;20532;-57
2024/04/10 02:36:59;;;;;;;2.20;1.10;;;13.10;99.90;;;;;;6230713;23;20465;-57
2024/04/10 02:39:27;;;;;;;3.90;1.90;;;13.10;99.90;;;;;;6230582;22;20782;-59
2024/04/10 02:41:56;;;;;;;3.40;1.30;;;13.00;99.90;;;;;;6229671;22;20778;-57
2024/04/10 02:44:22;;;;;;;6.80;1.57;;;13.00;99.90;;;;;;6229014;23;20477;-59
2024/04/10 02:46:51;;;;;;;1.50;1.17;;;13.00;99.90;;;;;;6230240;23;20456;-56
2024/04/10 02:49:20;;;;;;;3.93;1.10;;;13.10;99.90;;;;;;6229965;23;20503;-58
2024/04/10 02:51:49;;;;;;;3.33;2.77;;;13.10;99.90;;;;;;6231218;22;20540;-57
2024/04/10 03:06:07;;;;;;;3.07;1.33;;;13.10;99.90;;;;;;6681307;21;1204626;-59
2024/04/10 03:08:34;;;;;;;2.67;1.13;;;13.00;99.90;;;;;;6641954;21;20215;-57
2024/04/10 03:11:04;;;;;;;2.90;1.40;;;13.00;99.90;;;;;;6642185;21;20453;-58
2024/04/10 03:13:32;;;;;;;2.40;1.13;;;13.00;99.90;;;;;;6636024;21;20578;-58
2024/04/10 03:16:00;;;;;;;1.80;1.13;;;13.00;99.90;;;;;;6588813;21;20446;-56
2024/04/10 03:18:26;;;;;;;1.70;1.10;;;13.00;99.90;;;;;;6588413;21;20447;-59
2024/04/10 03:20:55;;;;;;;2.93;1.00;;;13.00;99.90;;;;;;6588840;21;20987;-59
2024/04/10 03:23:24;;;;;;;2.60;1.17;;;12.90;99.90;;;;;;6588822;21;20450;-54
2024/04/10 03:26:04;;;;;;;1.50;1.10;;;13.00;99.90;;;;;;6588180;21;20535;-58
2024/04/10 03:28:30;;;;;;;1.50;1.20;;;13.00;99.90;;;;;;6589914;21;20458;-59
2024/04/10 03:30:59;;;;;;;6.70;2.17;;;12.90;99.90;;;;;;6588381;21;20783;-55
2024/04/10 03:33:27;;;;;;;3.67;1.50;;;12.90;99.90;;;;;;6588594;21;20443;-52
2024/04/10 03:35:56;;;;;;;3.17;1.20;;;12.90;99.90;;;;;;6587203;21;20459;-58
2024/04/10 03:38:24;;;;;;;9.70;1.40;;;12.90;99.90;;;;;;6587682;21;20499;-59
2024/04/10 03:40:53;;;;;;;4.50;1.40;;;12.90;99.90;;;;;;6587931;21;20454;-58
2024/04/10 03:43:22;;;;;;;2.80;1.33;;;12.80;99.90;;;;;;6588066;21;20450;-58
2024/04/10 03:45:51;;;;;;;2.10;1.17;;;12.80;99.90;;;;;;6588780;21;20497;-56
2024/04/10 03:48:20;;;;;;;3.87;1.63;;;12.80;99.90;;;;;;6588513;21;20442;-56
2024/04/10 03:50:48;;;;;;;1.90;1.40;;;12.90;99.90;;;;;;6588584;21;20503;-57
2024/04/10 03:53:15;;;;;;;3.43;2.60;;;12.80;99.90;;;;;;6588257;21;20450;-56
2024/04/10 03:55:46;;;;;;;4.37;1.53;;;12.70;99.90;;;;;;6587361;21;20454;-58
2024/04/10 03:58:12;;;;;;;4.37;1.60;;;12.70;99.90;;;;;;6588494;21;20505;-56
2024/04/10 04:00:40;;;;;;;4.00;1.90;;;12.70;99.90;;;;;;6587797;21;20443;-56
2024/04/10 04:03:06;;;;;;;3.30;1.40;;;12.70;99.90;;;;;;6587547;21;20455;-59
2024/04/10 04:05:38;;;;;;;2.20;1.13;;;12.70;99.90;;;;;;6560826;21;20483;-57
2024/04/10 04:08:04;;;;;;;1.93;1.73;;;12.70;99.90;;;;;;6579941;21;20455;-57
2024/04/10 04:10:33;;;;;;;3.03;1.33;;;12.60;99.90;;;;;;6579398;21;20463;-59
2024/04/10 04:18:20;;;;;;;1.57;0.90;;;12.70;99.90;;;;;;6574883;21;20613;-58
2024/04/10 04:20:47;;;;;;;5.93;2.23;;;12.70;99.90;;;;;;6579958;21;20838;-57
2024/04/10 04:23:16;;;;;;;7.97;2.00;;;12.80;99.90;;;;;;6580036;21;20507;-58
2024/04/10 04:25:42;;;;;;;6.30;1.20;;;12.80;99.90;;;;;;6527751;22;20501;-58
2024/04/10 04:28:11;;;;;;;3.63;1.63;;;12.80;99.90;;;;;;6528110;22;20460;-58
2024/04/10 04:30:39;;;;;;;4.73;1.50;;;12.80;99.90;;;;;;6527865;22;20505;-58
2024/04/10 04:33:05;;;;;;;3.00;1.23;;;12.80;99.90;;;;;;6527869;22;20945;-57
2024/04/10 04:35:36;;;;;;;1.80;1.00;;;12.70;99.90;;;;;;6527402;22;20516;-54
2024/04/10 04:38:03;;;;;;;4.03;1.13;;;12.80;99.90;;;;;;6527463;22;20512;-55
2024/04/10 04:40:32;;;;;;;3.37;2.07;;;12.70;99.90;;;;;;6527835;22;20949;-57
2024/04/10 04:42:59;;;;;;;4.43;1.47;;;12.80;99.90;;;;;;6528169;22;20449;-58
2024/04/10 04:45:27;;;;;;;10.03;1.73;;;12.80;99.90;;;;;;6527487;22;20468;-58
2024/04/10 04:47:53;;;;;;;3.57;1.23;;;12.80;99.90;;;;;;6528071;22;20452;-57
2024/04/10 04:50:22;;;;;;;2.10;1.43;;;12.80;99.90;;;;;;6527723;22;20512;-58
2024/04/10 04:52:51;;;;;;;2.50;1.50;;;12.80;99.90;;;;;;6527512;22;20449;-56
2024/04/10 04:55:19;;;;;;;2.00;1.30;;;12.70;99.90;;;;;;6526357;22;20571;-58
2024/04/10 04:57:45;;;;;;;5.13;1.50;;;12.70;99.90;;;;;;6527926;22;20516;-58
2024/04/10 05:00:16;;;;;;;4.30;2.17;;;12.70;99.90;;;;;;6528057;22;20781;-58
2024/04/10 05:02:43;;;;;;;3.13;1.80;;;12.70;99.90;;;;;;6527700;22;20560;-58
2024/04/10 05:05:15;;;;;;;2.83;1.50;;;12.70;99.90;;;;;;6526782;22;20460;-57
2024/04/10 05:07:42;;;;;;;4.20;1.43;;;12.70;99.90;;;;;;6528437;22;20464;-57
2024/04/10 05:10:14;;;;;;;2.67;1.47;;;12.70;99.90;;;;;;6528939;22;20556;-57
2024/04/10 05:12:43;;;;;;;4.70;1.80;;;12.70;99.90;;;;;;6529466;22;20823;-59
2024/04/10 05:15:10;;;;;;;5.53;1.67;;;12.70;99.90;;;;;;6529499;22;20605;-58
2024/04/10 05:17:40;;;;;;;3.60;1.50;;;12.70;99.90;;;;;;6530598;22;20509;-56
2024/04/10 05:20:10;;;;;;;5.70;1.40;;;12.70;99.90;;;;;;6531300;22;20513;-58
2024/04/10 05:22:39;;;;;;;2.50;1.60;;;12.80;99.90;;;;;;6529211;22;20576;-58
2024/04/10 05:25:11;;;;;;;4.20;1.83;;;12.70;99.90;;;;;;6528154;22;20560;-58
2024/04/10 05:27:41;;;;;;;6.90;1.87;;;12.70;99.90;;;;;;6528506;22;20461;-60
2024/04/10 05:30:09;;;;;;;1.80;1.23;;;12.80;99.90;;;;;;6528187;22;20588;-58
2024/04/10 05:32:39;;;;;;;5.97;1.77;;;12.80;99.90;;;;;;6529691;22;20452;-57
2024/04/10 05:35:07;;;;;;;6.00;1.60;;;12.80;99.90;;;;;;6527941;22;20807;-58
2024/04/10 05:37:35;;;;;;;4.20;1.33;;;12.90;99.90;;;;;;6529432;22;20508;-59
2024/04/10 05:40:05;;;;;;;5.43;1.70;;;12.80;99.90;;;;;;6529354;21;20499;-59
2024/04/10 05:42:37;;;;;;;3.03;1.80;;;12.90;99.90;;;;;;6527938;22;21025;-57
2024/04/10 05:45:07;;;;;;;3.17;1.63;;;12.90;99.90;;;;;;6526867;22;20510;-57
2024/04/10 05:47:38;;;;;;;2.97;1.70;;;12.90;99.90;;;;;;6527796;22;20580;-59
2024/04/10 05:50:04;;;;;;;7.77;1.97;;;13.00;99.90;;;;;;6527369;22;20456;-54
2024/04/10 05:52:33;;;;;;;5.00;1.60;;;12.90;99.90;;;;;;6527240;22;20513;-58
2024/04/10 05:54:59;;;;;;;4.83;1.77;;;12.90;99.90;;;;;;6527567;22;20506;-53
2024/04/10 05:57:28;;;;;;;6.83;1.77;;;12.90;99.90;;;;;;6527693;22;20511;-56
2024/04/10 05:59:57;;;;;;;5.23;1.90;;;12.90;99.90;;;;;;6527391;22;20501;-54
2024/04/10 06:02:27;;;;;;;4.90;2.07;;;12.80;99.90;;;;;;6527929;22;20473;-58
2024/04/10 06:04:53;;;;;;;3.17;2.17;;;12.80;99.90;;;;;;6526517;22;21057;-57
2024/04/10 06:07:22;;;;;;;4.70;2.20;;;12.80;99.90;;;;;;6527029;22;20448;-58
2024/04/10 06:09:51;;;;;;;4.67;2.03;;;12.80;99.90;;;;;;6527347;22;20440;-60
2024/04/10 06:12:20;;;;;;;5.80;1.93;;;12.90;99.90;;;;;;6527806;22;20945;-59
2024/04/10 06:14:46;;;;;;;2.30;2.00;;;13.00;99.90;;;;;;6527701;22;20540;-55
2024/04/10 06:17:17;;;;;;;3.97;2.20;;;13.00;99.90;;;;;;6527806;22;20515;-57
2024/04/10 06:19:43;;;;;;;4.70;2.63;;;13.00;99.90;;;;;;6526674;22;21116;-61
2024/04/10 06:22:12;;;;;;;5.63;2.13;;;13.00;99.90;;;;;;6527779;22;20512;-60
2024/04/10 06:24:38;;;;;;;3.00;2.50;;;13.00;99.90;;;;;;6550741;21;20543;-56
2024/04/10 06:27:07;;;;;;;3.03;2.50;;;13.00;99.90;;;;;;6579223;21;20455;-57
2024/04/10 06:29:33;;;;;;;4.00;3.10;;;13.00;99.90;;;;;;6579747;21;20470;-59
2024/04/10 06:32:02;;;;;;;4.50;2.20;;;13.00;99.90;;;;;;6579837;21;20820;-55
2024/04/10 06:37:09;;;;;;;7.40;2.90;;;12.80;99.90;;;;;;6581013;21;20542;-58
2024/04/10 06:39:35;;;;;;;5.47;2.00;;;12.90;99.90;;;;;;6581438;21;20455;-56
2024/04/10 06:42:04;;;;;;;9.87;2.83;;;12.90;99.90;;;;;;6582141;21;20471;-56
2024/04/10 06:44:30;;;;;;;8.83;2.50;;;12.90;99.90;;;;;;6553919;21;20507;-59
2024/04/10 06:46:58;;;;;;;3.37;2.37;;;12.90;99.90;;;;;;6530677;22;20456;-53
2024/04/10 06:49:27;;;;;;;3.23;2.57;;;12.80;99.90;;;;;;6531051;22;20509;-58
2024/04/10 06:51:55;;;;;;;13.50;2.93;;;12.70;99.90;;;;;;6530625;22;20453;-55
2024/04/10 06:54:24;;;;;;;10.00;3.20;;;12.80;99.90;;;;;;6530838;21;20513;-58
2024/04/10 06:56:53;;;;;;;5.47;3.03;;;12.70;99.90;;;;;;6531279;22;20856;-55
2024/04/10 06:59:19;;;;;;;6.73;2.70;;;12.80;99.90;;;;;;6531253;22;20508;-57
2024/04/10 07:01:48;;;;;;;3.67;2.43;;;12.80;99.90;;;;;;6530923;22;20494;-56
2024/04/10 07:04:14;;;;;;;9.13;3.23;;;12.90;99.90;;;;;;6527969;21;20469;-57
2024/04/10 07:06:42;;;;;;;4.50;2.47;;;12.80;99.90;;;;;;6528641;22;20464;-58
2024/04/10 07:09:09;;;;;;;10.33;2.33;;;12.70;99.90;;;;;;6528465;22;20452;-55
2024/04/10 07:11:41;;;;;;;5.57;2.67;;;12.80;99.90;;;;;;6528590;22;20456;-58
2024/04/10 07:14:07;;;;;;;4.10;2.40;;;12.90;99.90;;;;;;6528572;21;20461;-58
2024/04/10 07:16:36;;;;;;;6.93;2.30;;;13.00;99.90;;;;;;6528009;22;20491;-58
2024/04/10 07:19:02;;;;;;;8.23;2.60;;;13.00;99.90;;;;;;6527356;22;20985;-55
2024/04/10 07:21:33;;;;;;;3.50;2.07;;;13.00;99.90;;;;;;6527219;22;20880;-58
2024/04/10 07:24:01;;;;;;;2.10;1.90;;;13.00;99.90;;;;;;6526931;21;20575;-58
2024/04/10 07:26:30;;;;;;;4.83;1.73;;;13.00;99.90;;;;;;6527271;22;20457;-60
2024/04/10 07:28:59;;;;;;;4.10;2.27;;;12.90;99.90;;;;;;6526746;22;20452;-55
2024/04/10 07:31:31;;;;;;;2.10;1.57;;;13.00;99.90;;;;;;6527047;22;20536;-60
2024/04/10 07:33:58;;;;;;;2.57;2.00;;;13.00;99.90;;;;;;6526717;21;20901;-60
2024/04/10 07:36:27;;;;;;;6.80;2.73;;;13.10;99.90;;;;;;6527000;22;20996;-56
2024/04/10 07:38:54;;;;;;;5.33;2.60;;;13.10;99.90;;;;;;6526562;22;20886;-62
2024/04/10 07:41:23;;;;;;;4.43;2.33;;;13.20;99.90;;;;;;6527633;22;20564;-57
2024/04/10 07:43:49;;;;;;;4.70;2.20;;;13.40;99.90;;;;;;6528628;21;20667;-54
2024/04/10 07:46:22;;;;;;;3.10;2.23;;;13.40;99.90;;;;;;6528785;22;20460;-52
2024/04/10 07:48:51;;;;;;;7.50;2.67;;;13.40;99.90;;;;;;6530200;22;21008;-55
2024/04/10 07:51:19;;;;;;;3.90;2.00;;;13.50;99.90;;;;;;6529116;22;20452;-58
2024/04/10 07:53:46;;;;;;;5.83;2.33;;;13.50;99.90;;;;;;6527671;21;20512;-58
2024/04/10 07:56:15;;;;;;;3.77;2.77;;;13.50;99.90;;;;;;6527980;21;20449;-58
2024/04/10 07:58:41;;;;;;;4.47;2.20;;;13.40;99.90;;;;;;6527362;22;20453;-59
2024/04/10 08:01:11;;;;;;;3.50;2.40;;;13.40;99.90;;;;;;6528902;22;20453;-56
2024/04/10 08:03:39;;;;;;;6.17;2.80;;;13.50;99.90;;;;;;6528957;21;20527;-58
2024/04/10 08:06:11;;;;;;;6.90;3.77;;;13.40;99.90;;;;;;6527959;22;20512;-57
2024/04/10 08:08:39;;;;;;;11.03;2.57;;;13.40;99.90;;;;;;6528507;22;20448;-58
2024/04/10 08:11:09;;;;;;;4.60;2.00;;;13.30;99.90;;;;;;6529029;22;20498;-57
2024/04/10 08:13:36;;;;;;;8.00;2.50;;;13.40;99.90;;;;;;6528465;21;20528;-59
2024/04/10 08:16:07;;;;;;;4.97;2.90;;;13.30;99.90;;;;;;6527868;22;20452;-57
2024/04/10 08:18:35;;;;;;;4.13;2.60;;;13.30;99.90;;;;;;6527524;22;20456;-58
2024/04/10 08:21:11;;;;;;;6.00;2.80;;;13.40;99.90;;;;;;6528297;22;20456;-55
2024/04/10 08:23:38;;;;;;;6.77;3.17;;;13.40;99.90;;;;;;6528593;21;20777;-59
2024/04/10 08:26:13;;;;;;;6.53;3.23;;;13.50;99.90;;;;;;6528393;22;20532;-54
2024/04/10 08:28:45;;;;;;;6.60;3.33;;;13.70;99.90;;;;;;6528509;22;20822;-57
2024/04/10 08:31:14;;;;;;;12.27;3.60;;;14.20;99.90;;;;;;6528221;22;20528;-56
2024/04/10 08:33:41;;;;;;;4.27;2.60;;;14.50;99.90;;;;;;6526475;21;21005;-56
2024/04/10 08:36:13;;;;;;;6.80;2.30;;;14.70;99.90;;;;;;6524691;22;20996;-58
2024/04/10 08:38:40;;;;;;;4.03;2.50;;;14.80;99.90;;;;;;6529206;22;20824;-55
2024/04/10 08:41:14;;;;;;;15.10;3.57;;;14.90;99.90;;;;;;6529357;22;20848;-55
2024/04/10 08:51:35;;;;;;;6.70;2.90;;;14.80;99.90;;;;;;6551150;21;21091;-57
2024/04/10 08:54:01;;;;;;;5.20;2.60;;;14.80;99.90;;;;;;6563174;21;20464;-55
2024/04/10 08:56:30;;;;;;;3.80;2.67;;;14.90;99.90;;;;;;6528720;22;20513;-57
2024/04/10 08:58:56;;;;;;;3.33;2.07;;;15.00;99.90;;;;;;6528329;22;20500;-56
2024/04/10 09:01:28;;;;;;;6.73;2.57;;;15.00;99.90;;;;;;6528224;22;20505;-58
2024/04/10 09:06:36;;;;;;;5.87;3.17;;;14.90;99.90;;;;;;6580845;21;20531;-57
2024/04/10 09:09:06;;;;;;;6.03;1.93;;;14.70;99.90;;;;;;6582719;21;20454;-52
2024/04/10 09:11:35;;;;;;;3.90;2.33;;;14.70;99.90;;;;;;6582548;21;20455;-55
2024/04/10 09:14:02;;;;;;;4.30;2.03;;;14.60;99.90;;;;;;6563947;21;20468;-58
2024/04/10 09:16:31;;;;;;;6.50;2.30;;;14.80;99.90;;;;;;6528547;22;20829;-57
2024/04/10 09:19:07;;;;;;;3.40;2.03;;;15.00;99.90;;;;;;6528650;22;20509;-58
2024/04/10 09:21:38;;;;;;;4.23;1.70;;;15.00;99.90;;;;;;6528744;22;20933;-56
2024/04/10 09:24:05;;;;;;;4.83;1.47;;;14.90;99.90;;;;;;6527464;21;20464;-58
2024/04/10 09:26:33;;;;;;;4.80;2.63;;;14.80;99.90;;;;;;6528391;22;20822;-57
2024/04/10 09:29:03;;;;;;;3.63;1.63;;;14.70;99.90;;;;;;6528189;22;20946;-56
2024/04/10 09:31:33;;;;;;;1.43;1.30;;;14.70;99.90;;;;;;6528043;22;20511;-59
2024/04/10 09:33:59;;;;;;;3.13;1.73;;;14.70;99.90;;;;;;6528212;21;20468;-57
2024/04/10 09:36:32;;;;;;;2.43;1.50;;;14.70;99.90;;;;;;6527998;22;20460;-59
2024/04/10 09:39:05;;;;;;;2.23;1.50;;;15.10;99.90;;;;;;6529005;22;20895;-57
2024/04/10 09:41:39;;;;;;;4.97;2.10;;;15.70;99.90;;;;;;6528023;22;20452;-56
2024/04/10 09:44:05;;;;;;;3.37;1.77;;;16.00;99.90;;;;;;6527857;21;20512;-56
2024/04/10 09:46:37;;;;;;;4.50;1.60;;;16.30;99.90;;;;;;6527888;22;20577;-54
2024/04/10 09:49:09;;;;;;;4.37;2.00;;;16.50;99.90;;;;;;6528113;22;20516;-58
2024/04/10 09:51:41;;;;;;;3.13;1.77;;;16.50;99.90;;;;;;6528425;22;20579;-58
2024/04/10 09:54:11;;;;;;;2.10;1.37;;;16.30;99.90;;;;;;6527238;21;20461;-59
2024/04/10 09:56:42;;;;;;;1.77;1.60;;;16.10;99.90;;;;;;6527743;22;20825;-59
2024/04/10 09:59:11;;;;;;;5.30;2.17;;;15.80;99.90;;;;;;6527486;22;20460;-59
2024/04/10 10:01:39;;;;;;;6.40;2.20;;;15.60;99.90;;;;;;6527526;22;20464;-58
2024/04/10 10:04:06;;;;;;;2.33;1.70;;;15.50;99.90;;;;;;6527227;21;20516;-58
2024/04/10 10:06:34;;;;;;;2.03;1.40;;;15.40;99.90;;;;;;6527620;22;20545;-58
2024/04/10 10:09:00;;;;;;;5.63;1.77;;;15.40;99.90;;;;;;6527908;22;20453;-57
2024/04/10 10:11:32;;;;;;;3.10;1.60;;;15.30;99.90;;;;;;6528117;22;20464;-55
2024/04/10 10:13:58;;;;;;;3.20;1.47;;;15.00;99.90;;;;;;6527841;21;20469;-52
2024/04/10 10:16:27;;;;;;;3.20;2.40;;;14.80;99.90;;;;;;6527917;22;20452;-57
2024/04/10 10:18:54;;;;;;;4.00;1.70;;;14.80;99.90;;;;;;6527216;22;20508;-57
2024/04/10 10:21:24;;;;;;;2.83;1.70;;;14.80;99.90;;;;;;6527835;22;20564;-59
2024/04/10 10:23:56;;;;;;;3.07;1.60;;;15.00;99.90;;;;;;6526702;21;20606;-56
2024/04/10 10:26:25;;;;;;;4.17;2.20;;;15.00;99.90;;;;;;6527910;22;20987;-58
2024/04/10 10:29:01;;;;;;;3.23;1.50;;;15.00;99.90;;;;;;6526986;22;20964;-59
2024/04/10 10:31:29;;;;;;;1.93;1.30;;;14.90;99.90;;;;;;6527325;22;21026;-57
2024/04/10 10:41:46;;;;;;;4.40;1.37;;;14.90;99.90;;;;;;6580825;21;20861;-57
2024/04/10 10:44:23;;;;;;;2.60;1.77;;;15.20;99.90;;;;;;6558922;21;20472;-59
2024/04/10 10:46:52;;;;;;;5.77;1.57;;;15.40;99.90;;;;;;6527479;22;20536;-56
2024/04/10 10:49:18;;;;;;;5.27;2.13;;;15.40;99.90;;;;;;6527659;22;20504;-57
2024/04/10 10:51:47;;;;;;;5.83;1.83;;;15.30;99.90;;;;;;6527500;22;20456;-59
2024/04/10 10:54:13;;;;;;;3.50;1.80;;;15.40;99.90;;;;;;6526872;21;20514;-59
2024/04/10 10:56:41;;;;;;;5.27;1.70;;;15.40;99.90;;;;;;6527433;22;20963;-58
2024/04/10 10:59:08;;;;;;;2.63;1.20;;;15.40;99.90;;;;;;6527632;22;20457;-55
2024/04/10 11:01:39;;;;;;;2.60;1.33;;;15.30;99.90;;;;;;6528175;22;20780;-59
2024/04/10 11:04:08;;;;;;;6.67;1.73;;;15.30;99.90;;;;;;6528789;21;20465;-57
2024/04/10 11:06:37;;;;;;;4.20;1.40;;;15.30;99.90;;;;;;6529015;22;20746;-58
2024/04/10 11:09:09;;;;;;;5.07;1.37;;;15.10;99.90;;;;;;6528422;22;21078;-60
2024/04/10 11:11:38;;;;;;;5.70;1.77;;;15.30;99.90;;;;;;6527627;22;20545;-58
2024/04/10 11:14:04;;;;;;;1.90;1.03;;;15.50;99.90;;;;;;6528352;21;20465;-57
2024/04/10 11:16:34;;;;;;;3.10;1.20;;;15.60;99.90;;;;;;6531753;22;20505;-60
2024/04/10 11:19:04;;;;;;;2.83;0.87;;;15.40;99.90;;;;;;6532121;22;20773;-53
2024/04/10 11:21:32;;;;;;;6.73;2.07;;;15.30;99.90;;;;;;6531731;22;20453;-59
2024/04/10 11:23:58;;;;;;;3.03;1.33;;;15.30;99.90;;;;;;6531838;21;21263;-57
2024/04/10 11:26:27;;;;;;;1.67;1.40;;;15.30;99.90;;;;;;6533000;22;20456;-57
2024/04/10 11:28:54;;;;;;;3.67;1.00;;;15.20;99.90;;;;;;6532951;22;20461;-56
2024/04/10 11:31:23;;;;;;;2.00;1.23;;;15.10;99.90;;;;;;6534333;22;20464;-58
2024/04/10 11:33:49;;;;;;;2.37;1.40;;;15.10;99.90;;;;;;6533371;21;20526;-54
2024/04/10 11:36:21;;;;;;;1.83;1.00;;;15.00;99.90;;;;;;6533078;22;20464;-56
2024/04/10 11:38:48;;;;;;;2.23;1.87;;;14.90;99.90;;;;;;6533971;22;20973;-58
2024/04/10 11:41:17;;;;;;;4.70;1.30;;;14.80;99.90;;;;;;6532880;22;20465;-56
2024/04/10 11:43:44;;;;;;;1.57;0.80;;;14.80;99.90;;;;;;6530951;21;20480;-58
2024/04/10 11:46:13;;;;;;;2.50;1.10;;;15.00;99.90;;;;;;6532536;22;20467;-57
2024/04/10 11:48:39;;;;;;;5.27;0.90;;;15.30;99.90;;;;;;6531748;22;20559;-56
2024/04/10 11:51:08;;;;;;;3.40;0.83;;;15.50;99.90;;;;;;6531067;22;20812;-56
2024/04/10 11:53:37;;;;;;;3.10;0.80;;;15.80;99.90;;;;;;6531101;21;20453;-56
2024/04/10 11:56:06;;;;;;;1.43;0.90;;;15.90;99.90;;;;;;6531090;22;20456;-55
2024/04/10 11:58:32;;;;;;;1.70;1.03;;;15.80;99.90;;;;;;6531775;22;20456;-55
2024/04/10 12:01:01;;;;;;;1.40;0.90;;;15.60;99.90;;;;;;6530870;22;20460;-58
2024/04/10 12:03:27;;;;;;;3.43;0.90;;;15.40;99.90;;;;;;6532110;21;20581;-56
2024/04/10 12:06:04;;;;;;;1.90;0.90;;;15.30;99.90;;;;;;6533070;22;20511;-58
2024/04/10 12:08:32;;;;;;;2.80;1.33;;;15.20;99.90;;;;;;6530885;22;20459;-56
2024/04/10 12:11:04;;;;;;;1.73;0.80;;;15.00;99.90;;;;;;6529641;22;20460;-57
2024/04/10 12:13:30;;;;;;;3.30;1.13;;;15.10;99.90;;;;;;6529441;21;20589;-56
2024/04/10 12:15:59;;;;;;;1.17;0.87;;;15.10;99.90;;;;;;6526886;22;20503;-58
2024/04/10 12:18:25;;;;;;;4.03;1.07;;;15.00;99.90;;;;;;6528913;22;20791;-55
2024/04/10 12:20:53;;;;;;;1.50;0.90;;;15.00;99.90;;;;;;6528964;22;20519;-57
2024/04/10 12:31:01;;;;;;;2.60;0.90;;;15.10;99.90;;;;;;6590965;21;20525;-55
2024/04/10 12:33:27;;;;;;;1.47;1.00;;;15.20;99.90;;;;;;6629760;21;20513;-53
2024/04/10 12:38:41;;;;;;;2.27;1.00;;;15.20;99.90;;;;;;6584758;21;20558;-58
2024/04/10 12:41:09;;;;;;;2.07;1.47;;;15.20;99.90;;;;;;6580616;21;20514;-58
2024/04/10 12:43:42;;;;;;;1.93;1.07;;;15.20;99.90;;;;;;6580760;21;20520;-57
2024/04/10 12:46:12;;;;;;;3.33;1.37;;;15.20;99.90;;;;;;6580511;21;20526;-53
2024/04/10 12:48:40;;;;;;;1.53;1.17;;;15.10;99.90;;;;;;6580908;21;20526;-58
2024/04/10 12:51:07;;;;;;;1.30;0.80;;;15.00;99.90;;;;;;6580244;21;20562;-55
2024/04/10 12:53:36;;;;;;;1.70;0.90;;;15.00;99.90;;;;;;6580558;21;20486;-58
2024/04/10 12:56:02;;;;;;;6.53;1.50;;;15.00;99.90;;;;;;6581433;21;20501;-57
2024/04/10 12:58:31;;;;;;;3.47;1.63;;;15.00;99.90;;;;;;6580589;21;20455;-58
2024/04/10 13:00:57;;;;;;;3.27;1.97;;;15.00;99.90;;;;;;6580774;21;20511;-55
2024/04/10 13:03:31;;;;;;;4.20;1.57;;;15.10;99.90;;;;;;6579590;21;20466;-58
2024/04/10 13:05:58;;;;;;;5.20;1.23;;;15.10;99.90;;;;;;6580247;21;20475;-57
2024/04/10 13:08:26;;;;;;;2.50;1.37;;;15.00;99.90;;;;;;6580437;21;20503;-56
2024/04/10 13:11:03;;;;;;;2.87;1.33;;;15.00;99.90;;;;;;6579653;21;20459;-57
2024/04/10 13:13:32;;;;;;;2.40;1.37;;;15.00;99.90;;;;;;6580240;21;20447;-59
2024/04/10 13:15:59;;;;;;;1.87;1.00;;;15.00;99.90;;;;;;6579808;21;20467;-56
2024/04/10 13:18:31;;;;;;;2.87;0.90;;;14.90;99.90;;;;;;6580082;21;20504;-57
2024/04/10 13:20:58;;;;;;;1.50;0.90;;;15.00;99.90;;;;;;6579985;21;20458;-59
2024/04/10 13:23:30;;;;;;;1.50;1.17;;;15.00;99.90;;;;;;6579659;21;20502;-59
2024/04/10 13:26:00;;;;;;;3.30;1.90;;;15.00;99.90;;;;;;6579568;21;20776;-58
2024/04/10 13:28:29;;;;;;;1.90;1.03;;;15.10;99.90;;;;;;6579533;21;20460;-58
2024/04/10 13:31:09;;;;;;;2.40;1.20;;;15.30;99.90;;;;;;6579982;21;20455;-58
2024/04/10 13:33:40;;;;;;;2.20;1.30;;;15.40;99.90;;;;;;6579624;21;20534;-59
2024/04/10 13:36:08;;;;;;;2.60;1.10;;;15.50;99.90;;;;;;6579651;21;20511;-58
2024/04/10 13:38:38;;;;;;;4.60;1.00;;;15.60;99.90;;;;;;6580271;21;20439;-58
2024/04/10 13:41:05;;;;;;;4.00;1.07;;;15.60;99.90;;;;;;6581774;21;20459;-57